createdAt,value
2022-08-28T00:00:42.552Z,1.73
2022-08-28T00:03:12.384Z,1.80
2022-08-28T00:05:41.560Z,2.00
2022-08-28T00:08:11.259Z,1.75
2022-08-28T00:10:40.471Z,1.92
2022-08-28T00:13:09.300Z,1.70
2022-08-28T00:15:39.389Z,1.48
2022-08-28T00:18:08.773Z,1.48
2022-08-28T00:20:37.172Z,1.42
2022-08-28T00:23:06.013Z,1.40
2022-08-28T00:25:35.392Z,1.50
2022-08-28T00:28:08.839Z,1.52
2022-08-28T00:30:41.124Z,1.38
2022-08-28T00:33:12.755Z,1.40
2022-08-28T00:35:41.832Z,1.60
2022-08-28T00:38:10.776Z,1.67
2022-08-28T00:40:40.194Z,1.70
2022-08-28T00:43:09.846Z,1.30
2022-08-28T00:45:40.429Z,1.80
2022-08-28T00:48:09.378Z,1.40
2022-08-28T00:50:51.581Z,1.70
2022-08-28T00:53:20.786Z,1.60
2022-08-28T00:55:51.613Z,1.50
2022-08-28T00:58:20.467Z,1.55
2022-08-28T01:00:50.049Z,1.50
2022-08-28T01:03:18.191Z,1.40
2022-08-28T01:05:48.200Z,1.50
2022-08-28T01:08:16.625Z,1.48
2022-08-28T01:10:50.884Z,1.30
2022-08-28T01:13:19.476Z,1.30
2022-08-28T01:15:49.440Z,1.20
2022-08-28T01:18:18.939Z,1.55
2022-08-28T01:20:56.901Z,1.00
2022-08-28T01:23:35.714Z,1.27
2022-08-28T01:26:06.491Z,1.10
2022-08-28T01:28:39.530Z,1.42
2022-08-28T01:31:10.099Z,1.38
2022-08-28T01:33:42.287Z,1.10
2022-08-28T01:36:12.443Z,1.10
2022-08-28T01:38:41.133Z,0.98
2022-08-28T01:41:12.125Z,1.20
2022-08-28T01:43:41.445Z,1.10
2022-08-28T01:46:11.713Z,1.40
2022-08-28T01:48:42.883Z,1.00
2022-08-28T01:51:12.141Z,1.08
2022-08-28T01:53:41.530Z,1.10
2022-08-28T01:56:18.199Z,1.10
2022-08-28T08:23:07.507Z,1.25
2022-08-28T08:25:35.490Z,1.20
2022-08-28T08:28:03.993Z,1.33
2022-08-28T08:30:32.014Z,1.48
2022-08-28T08:32:59.926Z,1.73
2022-08-28T08:35:27.961Z,1.40
2022-08-28T08:37:57.823Z,1.20
2022-08-28T08:40:29.263Z,1.65
2022-08-28T08:42:58.193Z,1.23
2022-08-28T08:45:26.855Z,1.38
2022-08-28T08:47:57.171Z,1.60
2022-08-28T08:50:28.485Z,1.33
2022-08-28T08:53:19.992Z,1.40
2022-08-28T08:55:52.325Z,1.58
2022-08-28T08:58:25.830Z,1.10
2022-08-28T09:01:01.290Z,1.42
2022-08-28T09:03:45.546Z,1.67
2022-08-28T09:06:27.035Z,1.20
2022-08-28T09:09:00.389Z,1.40
2022-08-28T09:11:44.430Z,1.58
2022-08-28T09:14:20.713Z,1.30
2022-08-28T09:16:56.972Z,1.20
2022-08-28T09:19:24.989Z,1.10
2022-08-28T09:21:53.558Z,1.40
2022-08-28T09:24:25.441Z,1.33
2022-08-28T09:26:58.491Z,1.40
2022-08-28T09:29:30.909Z,1.30
2022-08-28T09:31:59.167Z,1.30
2022-08-28T09:34:35.491Z,1.30
2022-08-28T09:37:09.710Z,1.73
2022-08-28T09:39:44.585Z,1.38
2022-08-28T09:42:41.088Z,1.20
2022-08-28T09:45:21.445Z,1.40
2022-08-28T09:47:51.861Z,1.25
2022-08-28T09:50:29.820Z,1.45
2022-08-28T09:53:00.832Z,1.50
2022-08-28T09:55:38.739Z,1.30
2022-08-28T09:58:09.330Z,1.52
2022-08-28T10:00:44.563Z,1.27
2022-08-28T10:03:19.147Z,1.30
2022-08-28T10:05:59.050Z,1.35
2022-08-28T10:08:41.410Z,1.40
2022-08-28T10:11:18.370Z,1.25
2022-08-28T10:13:58.341Z,1.25
2022-08-28T10:16:35.520Z,1.30
2022-08-28T10:19:10.298Z,1.00
2022-08-28T10:21:46.424Z,1.17
2022-08-28T10:24:32.454Z,1.30
2022-08-28T10:27:09.486Z,0.98
2022-08-28T10:29:50.532Z,1.10
2022-08-28T10:33:05.887Z,1.13
2022-08-28T10:35:45.076Z,1.10
2022-08-28T10:38:17.456Z,1.35
2022-08-28T10:40:54.650Z,1.02
2022-08-28T10:43:30.997Z,1.20
2022-08-28T10:46:04.842Z,1.13
2022-08-28T10:48:39.769Z,1.20
2022-08-28T10:51:13.040Z,0.93
2022-08-28T10:53:45.594Z,1.20
2022-08-28T10:56:17.532Z,0.90
2022-08-28T10:58:49.493Z,1.30
2022-08-28T11:01:27.225Z,1.23
2022-08-28T11:03:58.405Z,0.93
2022-08-28T11:06:32.715Z,1.30
2022-08-28T11:09:24.632Z,1.13
2022-08-28T11:12:01.089Z,1.00
2022-08-28T11:14:47.628Z,1.30
2022-08-28T11:20:16.890Z,1.13
2022-08-28T11:22:48.800Z,1.35
2022-08-28T11:25:26.591Z,1.40
2022-08-28T11:28:18.882Z,1.10
2022-08-28T11:30:48.281Z,1.30
2022-08-28T11:33:36.475Z,1.20
2022-08-28T11:36:10.464Z,1.77
2022-08-28T11:39:05.769Z,1.15
2022-08-28T11:41:36.783Z,1.30
2022-08-28T11:44:40.234Z,1.63
2022-08-28T11:47:45.804Z,1.00
2022-08-28T11:50:18.542Z,1.10
2022-08-28T11:53:11.566Z,1.48
2022-08-28T11:55:57.402Z,1.40
2022-08-28T11:58:35.595Z,1.20
2022-08-28T12:01:07.508Z,1.20
2022-08-28T12:03:38.604Z,1.50
2022-08-28T12:06:08.540Z,1.23
2022-08-28T12:09:11.806Z,1.40
2022-08-28T12:11:54.852Z,1.17
2022-08-28T12:15:02.284Z,1.20
2022-08-28T12:17:44.477Z,1.30
2022-08-28T12:20:19.638Z,1.10
2022-08-28T12:22:52.967Z,1.38
2022-08-28T12:25:31.550Z,1.00
2022-08-28T12:28:04.426Z,1.13
2022-08-28T12:30:36.433Z,1.00
2022-08-28T12:33:15.129Z,1.40
2022-08-28T12:35:44.004Z,1.00
2022-08-28T12:38:20.132Z,1.25
2022-08-28T12:40:54.965Z,0.95
2022-08-28T12:43:34.006Z,1.10
2022-08-28T12:46:07.051Z,1.40
2022-08-28T12:48:51.785Z,1.27
2022-08-28T12:51:22.726Z,1.67
2022-08-28T12:53:52.352Z,1.15
2022-08-28T12:56:23.789Z,2.10
2022-08-28T12:58:52.681Z,2.25
2022-08-28T13:01:29.344Z,1.58
2022-08-28T13:04:00.001Z,1.60
2022-08-28T13:06:30.671Z,2.05
2022-08-28T13:09:01.706Z,1.50
2022-08-28T13:11:34.722Z,1.40
2022-08-28T13:14:04.373Z,1.90
2022-08-28T13:16:38.937Z,1.90
2022-08-28T13:19:26.010Z,1.67
2022-08-28T13:22:00.461Z,1.60
2022-08-28T13:24:45.717Z,1.55
2022-08-28T13:27:25.424Z,1.70
2022-08-28T13:30:00.799Z,1.35
2022-08-28T13:32:31.492Z,1.80
2022-08-28T13:35:33.100Z,1.08
2022-08-28T13:38:03.986Z,1.70
2022-08-28T13:43:31.854Z,1.55
2022-08-28T13:45:59.924Z,1.30
2022-08-28T13:48:28.837Z,1.90
2022-08-28T13:51:00.163Z,1.33
2022-08-28T13:53:28.344Z,1.20
2022-08-28T13:55:58.444Z,1.27
2022-08-28T13:58:26.513Z,1.20
2022-08-28T14:00:56.215Z,1.33
2022-08-28T14:03:36.003Z,1.20
2022-08-28T14:06:05.164Z,1.45
2022-08-28T14:08:33.237Z,0.90
2022-08-28T14:11:01.441Z,1.10
2022-08-28T14:13:29.653Z,1.20
2022-08-28T14:15:59.203Z,1.02
2022-08-28T14:18:28.203Z,1.15
2022-08-28T14:20:56.438Z,1.00
2022-08-28T14:23:24.479Z,0.80
2022-08-28T14:25:52.605Z,0.85
2022-08-28T14:28:20.634Z,0.80
2022-08-28T14:30:50.287Z,0.90
2022-08-28T14:33:20.826Z,0.93
2022-08-28T14:35:49.955Z,0.77
2022-08-28T14:38:18.099Z,0.70
2022-08-28T14:40:46.552Z,0.88
2022-08-28T14:43:15.432Z,0.82
2022-08-28T14:45:45.054Z,0.93
2022-08-28T14:48:14.793Z,0.82
2022-08-28T14:50:45.913Z,1.17
2022-08-28T14:53:15.101Z,0.80
2022-08-28T14:55:45.199Z,0.88
2022-08-28T14:58:13.712Z,0.75
2022-08-28T15:00:42.442Z,0.80
2022-08-28T15:03:11.285Z,0.60
2022-08-28T15:05:39.590Z,0.57
2022-08-28T15:08:09.858Z,0.80
2022-08-28T15:10:38.960Z,0.73
2022-08-28T15:13:11.704Z,1.05
2022-08-28T15:15:42.650Z,0.73
2022-08-28T15:18:11.688Z,0.82
2022-08-28T15:20:41.065Z,1.00
2022-08-28T15:23:11.086Z,1.00
2022-08-28T15:25:39.200Z,0.80
2022-08-28T15:28:07.869Z,1.42
2022-08-28T15:30:36.932Z,1.13
2022-08-28T15:33:05.336Z,1.42
2022-08-28T15:35:34.265Z,1.50
2022-08-28T15:38:02.472Z,1.60
2022-08-28T15:40:50.037Z,1.58
2022-08-28T15:43:19.035Z,1.38
2022-08-28T15:45:47.567Z,1.50
2022-08-28T15:48:15.645Z,1.40
2022-08-28T15:50:43.958Z,1.30
2022-08-28T15:53:11.902Z,1.25
2022-08-28T15:55:41.685Z,1.45
2022-08-28T15:58:13.844Z,1.20
2022-08-28T16:00:43.185Z,1.27
2022-08-28T16:03:11.162Z,1.50
2022-08-28T16:05:40.849Z,1.50
2022-08-28T16:08:10.392Z,1.40
2022-08-28T16:10:38.337Z,1.23
2022-08-28T16:13:07.855Z,1.38
2022-08-28T16:15:36.240Z,1.20
2022-08-28T16:18:09.069Z,1.15
2022-08-28T16:20:37.807Z,1.33
2022-08-28T16:23:05.825Z,1.38
2022-08-28T16:25:34.634Z,1.88
2022-08-28T16:28:02.773Z,1.20
2022-08-28T16:30:32.547Z,1.42
2022-08-28T16:33:04.271Z,1.02
2022-08-28T16:35:32.589Z,1.17
2022-08-28T16:38:05.420Z,1.30
2022-08-28T16:40:33.539Z,1.33
2022-08-28T16:43:01.817Z,1.58
2022-08-28T16:45:31.530Z,1.13
2022-08-28T16:48:00.147Z,1.20
2022-08-28T16:50:31.729Z,0.80
2022-08-28T16:53:04.817Z,1.00
2022-08-28T16:55:34.922Z,0.90
2022-08-28T16:58:02.990Z,1.05
2022-08-28T17:00:33.347Z,0.80
2022-08-28T17:03:01.887Z,1.25
2022-08-28T17:05:30.041Z,1.15
2022-08-28T17:07:58.976Z,1.10
2022-08-28T17:10:27.694Z,0.95
2022-08-28T17:12:56.885Z,1.00
2022-08-28T17:15:24.866Z,1.15
2022-08-28T17:17:54.109Z,0.88
2022-08-28T17:20:39.886Z,1.10
2022-08-28T17:23:07.887Z,1.38
2022-08-28T17:25:36.025Z,0.75
2022-08-28T17:28:04.794Z,1.00
2022-08-28T17:30:32.703Z,0.88
2022-08-28T17:33:02.170Z,0.93
2022-08-28T17:35:30.190Z,1.17
2022-08-28T17:37:58.137Z,1.13
2022-08-28T17:40:26.206Z,1.15
2022-08-28T17:42:54.573Z,1.08
2022-08-28T17:45:22.453Z,1.08
2022-08-28T17:47:50.955Z,1.00
2022-08-28T17:50:20.529Z,0.80
2022-08-28T17:52:48.964Z,0.98
2022-08-28T17:55:18.488Z,0.98
2022-08-28T17:57:46.436Z,1.08
2022-08-28T18:00:16.356Z,0.95
2022-08-28T18:02:44.639Z,1.13
2022-08-28T18:05:14.618Z,1.10
2022-08-28T18:07:43.984Z,1.30
2022-08-28T18:10:12.243Z,1.20
2022-08-28T18:12:40.749Z,1.27
2022-08-28T18:15:10.955Z,1.02
2022-08-28T18:17:40.104Z,0.93
2022-08-28T18:20:11.253Z,0.95
2022-08-28T18:22:39.917Z,1.00
2022-08-28T18:25:30.511Z,0.90
2022-08-28T18:27:58.614Z,1.20
2022-08-28T18:30:27.143Z,1.00
2022-08-28T18:32:58.390Z,0.90
2022-08-28T18:35:31.709Z,1.00
2022-08-28T18:38:01.538Z,1.00
2022-08-28T18:40:31.735Z,1.00
2022-08-28T18:43:00.278Z,1.05
2022-08-28T18:45:28.927Z,1.15
2022-08-28T18:47:56.969Z,1.08
2022-08-28T18:50:26.209Z,0.85
2022-08-28T18:52:55.372Z,1.35
2022-08-28T18:55:26.008Z,1.05
2022-08-28T18:57:55.478Z,1.10
2022-08-28T19:00:25.619Z,0.95
2022-08-28T19:02:55.225Z,1.38
2022-08-28T19:05:23.739Z,1.02
2022-08-28T19:07:51.917Z,0.82
2022-08-28T19:10:32.869Z,1.00
2022-08-28T19:13:03.585Z,1.08
2022-08-28T19:15:32.346Z,1.02
2022-08-28T19:18:01.498Z,1.20
2022-08-28T19:20:30.894Z,1.15
2022-08-28T19:23:00.059Z,1.15
2022-08-28T19:25:31.704Z,1.20
2022-08-28T19:28:01.446Z,1.10
2022-08-28T19:30:33.404Z,1.20
2022-08-28T19:33:02.256Z,1.17
2022-08-28T19:35:30.518Z,1.40
2022-08-28T19:37:58.625Z,1.17
2022-08-28T19:40:27.482Z,1.10
2022-08-28T19:42:55.763Z,1.58
2022-08-28T19:45:24.061Z,1.15
2022-08-28T19:47:53.688Z,1.58
2022-08-28T19:50:21.849Z,1.23
2022-08-28T19:52:49.793Z,1.30
2022-08-28T19:55:21.129Z,1.27
2022-08-28T19:57:49.393Z,1.23
2022-08-28T20:00:19.370Z,1.40
2022-08-28T20:02:48.331Z,1.02
2022-08-28T20:05:17.883Z,1.20
2022-08-28T20:07:46.536Z,1.20
2022-08-28T20:10:16.322Z,1.13
2022-08-28T20:12:48.108Z,0.93
2022-08-28T20:15:18.146Z,1.00
2022-08-28T20:17:49.614Z,0.80
2022-08-28T20:20:21.239Z,0.93
2022-08-28T20:22:54.150Z,1.00
2022-08-28T20:25:22.911Z,0.80
2022-08-28T20:27:50.969Z,0.80
2022-08-28T20:30:19.409Z,0.98
2022-08-28T20:32:47.663Z,1.00
2022-08-28T20:35:16.242Z,1.08
2022-08-28T20:37:49.489Z,1.10
2022-08-28T20:40:21.942Z,1.10
2022-08-28T20:42:50.204Z,0.90
2022-08-28T20:45:20.371Z,1.00
2022-08-28T20:47:48.566Z,0.77
2022-08-28T20:50:16.957Z,0.70
2022-08-28T20:52:46.299Z,0.60
2022-08-28T20:55:15.004Z,0.80
2022-08-28T20:57:43.179Z,0.80
2022-08-28T21:00:12.860Z,0.63
2022-08-28T21:02:40.859Z,0.40
2022-08-28T21:05:09.534Z,0.70
2022-08-28T21:07:37.888Z,0.98
2022-08-28T21:10:08.234Z,0.60
2022-08-28T21:12:37.862Z,0.90
2022-08-28T21:15:07.377Z,0.70
2022-08-28T21:17:35.460Z,0.55
2022-08-28T21:20:11.392Z,0.70
2022-08-28T21:22:40.261Z,0.60
2022-08-28T21:25:12.409Z,0.70
2022-08-28T21:27:40.853Z,0.88
2022-08-28T21:30:10.742Z,0.90
2022-08-28T21:32:38.925Z,0.90
2022-08-28T21:35:09.421Z,0.75
2022-08-28T21:37:39.964Z,0.70
2022-08-28T21:40:12.930Z,0.60
2022-08-28T21:42:41.161Z,0.90
2022-08-28T21:45:12.206Z,0.80
2022-08-28T21:47:40.913Z,0.70
2022-08-28T21:50:10.899Z,0.57
2022-08-28T21:52:38.993Z,0.60
2022-08-28T21:55:11.617Z,0.82
2022-08-28T21:57:39.994Z,0.70
2022-08-28T22:00:11.262Z,0.50
2022-08-28T22:02:39.375Z,0.60
2022-08-28T22:05:07.590Z,0.70
2022-08-28T22:07:35.552Z,0.82
2022-08-28T22:10:03.612Z,0.80
2022-08-28T22:12:33.099Z,0.88
2022-08-28T22:15:01.604Z,0.88
2022-08-28T22:17:29.761Z,0.90
2022-08-28T22:19:57.746Z,0.80
2022-08-28T22:22:43.549Z,0.70
2022-08-28T22:25:11.540Z,0.65
2022-08-28T22:27:40.907Z,1.00
2022-08-28T22:30:10.205Z,0.50
2022-08-28T22:32:38.200Z,0.90
2022-08-28T22:35:07.139Z,0.85
2022-08-28T22:37:36.317Z,0.77
2022-08-28T22:40:13.117Z,1.00
2022-08-28T22:42:43.390Z,0.90
2022-08-28T22:45:11.768Z,1.00
2022-08-28T22:47:39.755Z,1.17
2022-08-28T22:50:09.440Z,0.90
2022-08-28T22:52:37.704Z,0.90
2022-08-28T22:55:09.592Z,0.90
2022-08-28T22:57:42.228Z,0.90
2022-08-28T23:00:12.880Z,0.80
2022-08-28T23:02:42.054Z,1.42
2022-08-28T23:05:10.356Z,1.00
2022-08-28T23:07:38.492Z,0.80
2022-08-28T23:10:07.552Z,1.25
2022-08-28T23:12:36.025Z,0.95
2022-08-28T23:15:08.418Z,0.82
2022-08-28T23:17:36.876Z,0.90
2022-08-28T23:20:07.448Z,0.80
2022-08-28T23:22:38.454Z,0.98
2022-08-28T23:25:07.661Z,1.08
2022-08-28T23:27:36.729Z,0.65
2022-08-28T23:30:08.168Z,1.00
2022-08-28T23:32:36.114Z,0.80
2022-08-28T23:35:06.489Z,0.82
2022-08-28T23:37:35.930Z,0.80
2022-08-28T23:40:05.070Z,0.90
2022-08-28T23:42:33.252Z,1.20
2022-08-28T23:45:01.333Z,0.70
2022-08-28T23:47:30.763Z,0.93
2022-08-28T23:49:59.134Z,1.08
2022-08-28T23:52:27.206Z,0.80
2022-08-28T23:54:55.359Z,0.77
2022-08-28T23:57:23.270Z,1.02
2022-08-28T23:59:51.926Z,0.80
